Time;durP1;ratioP1;P1;durP2;ratioP2;P2;SDS_P1;SDS_P2;PMS_P1;PMS_P2;Temp;Humidity;BMP_temperature;BMP_pressure;BME280_temperature;BME280_humidity;BME280_pressure;Samples;Min_cycle;Max_cycle;Signal;HPM_P1;HPM_P2
2023/10/29 00:00:01;;;;;;;1.83;0.83;;;;;;;;;;469435;28;1093;-69
2023/10/29 00:00:17;;;;;;;2.80;0.90;;;;;;;;;;468438;28;1249;-69
2023/10/29 00:00:33;;;;;;;3.20;0.90;;;;;;;;;;469158;28;913;-69
2023/10/29 00:00:48;;;;;;;2.43;0.90;;;;;;;;;;468417;28;1153;-69
2023/10/29 00:01:03;;;;;;;2.80;0.98;;;;;;;;;;468492;28;1242;-70
2023/10/29 00:01:19;;;;;;;2.20;0.80;;;;;;;;;;466866;28;1036;-69
2023/10/29 00:01:34;;;;;;;2.27;0.70;;;;;;;;;;467237;28;1248;-68
2023/10/29 00:01:49;;;;;;;2.60;0.80;;;;;;;;;;467210;28;1133;-69
2023/10/29 00:02:05;;;;;;;2.37;0.83;;;;;;;;;;467692;28;1020;-69
2023/10/29 00:02:20;;;;;;;2.17;0.90;;;;;;;;;;465301;28;1139;-69
2023/10/29 00:02:36;;;;;;;2.27;0.90;;;;;;;;;;466570;28;1461;-69
2023/10/29 00:02:51;;;;;;;2.20;0.90;;;;;;;;;;466976;28;890;-69
2023/10/29 00:03:06;;;;;;;2.63;1.00;;;;;;;;;;466361;28;1061;-69
2023/10/29 00:03:22;;;;;;;3.37;1.00;;;;;;;;;;464090;28;1175;-69
2023/10/29 00:03:37;;;;;;;2.87;0.90;;;;;;;;;;467278;28;1272;-69
2023/10/29 00:03:52;;;;;;;2.75;0.90;;;;;;;;;;466805;28;1117;-69
2023/10/29 00:04:08;;;;;;;2.47;0.87;;;;;;;;;;465311;28;1255;-69
2023/10/29 00:04:23;;;;;;;2.23;0.90;;;;;;;;;;465861;28;1034;-69
2023/10/29 00:04:39;;;;;;;2.40;0.90;;;;;;;;;;465472;28;1246;-69
2023/10/29 00:04:54;;;;;;;2.97;1.00;;;;;;;;;;467020;28;2152;-69
2023/10/29 00:05:09;;;;;;;3.60;1.00;;;;;;;;;;467256;28;1265;-69
2023/10/29 00:05:25;;;;;;;3.43;1.10;;;;;;;;;;465940;28;1089;-69
2023/10/29 00:05:41;;;;;;;2.70;0.97;;;;;;;;;;466267;28;1314;-68
2023/10/29 00:05:56;;;;;;;2.13;0.85;;;;;;;;;;466263;28;918;-69
2023/10/29 00:06:11;;;;;;;1.88;0.90;;;;;;;;;;466250;28;1015;-69
2023/10/29 00:06:27;;;;;;;1.80;0.80;;;;;;;;;;468080;28;894;-69
2023/10/29 00:06:42;;;;;;;2.23;1.00;;;;;;;;;;467836;28;1271;-69
2023/10/29 00:06:58;;;;;;;2.38;1.00;;;;;;;;;;468373;28;1075;-68
2023/10/29 00:07:13;;;;;;;2.53;0.90;;;;;;;;;;468611;28;1148;-69
2023/10/29 00:07:28;;;;;;;2.60;0.90;;;;;;;;;;468961;28;1214;-68
2023/10/29 00:07:44;;;;;;;2.20;0.80;;;;;;;;;;469300;28;1085;-69
2023/10/29 00:07:59;;;;;;;2.53;0.80;;;;;;;;;;469901;28;1500;-69
2023/10/29 00:08:15;;;;;;;2.80;0.90;;;;;;;;;;468962;28;1156;-69
2023/10/29 00:08:30;;;;;;;2.00;0.80;;;;;;;;;;469161;28;1266;-69
2023/10/29 00:08:45;;;;;;;1.58;0.80;;;;;;;;;;465651;28;1153;-69
2023/10/29 00:09:01;;;;;;;1.77;0.80;;;;;;;;;;466216;28;1140;-69
2023/10/29 00:09:17;;;;;;;2.20;0.77;;;;;;;;;;466467;28;1114;-69
2023/10/29 00:09:32;;;;;;;3.08;1.00;;;;;;;;;;465935;28;1589;-68
2023/10/29 00:09:48;;;;;;;2.70;0.93;;;;;;;;;;465436;28;1090;-69
2023/10/29 00:10:03;;;;;;;2.40;0.90;;;;;;;;;;464241;28;1015;-69
2023/10/29 00:10:19;;;;;;;2.85;0.98;;;;;;;;;;467335;28;898;-68
2023/10/29 00:10:35;;;;;;;2.77;1.00;;;;;;;;;;466865;28;1187;-68
2023/10/29 00:10:50;;;;;;;2.45;1.10;;;;;;;;;;467841;28;996;-68
2023/10/29 00:11:07;;;;;;;3.20;1.00;;;;;;;;;;467930;28;1357;-68
2023/10/29 00:11:22;;;;;;;2.80;0.85;;;;;;;;;;467702;28;1059;-68
2023/10/29 00:11:37;;;;;;;2.22;1.00;;;;;;;;;;465436;28;1472;-68
2023/10/29 00:11:52;;;;;;;2.47;1.00;;;;;;;;;;465640;28;919;-68
2023/10/29 00:12:08;;;;;;;2.43;1.00;;;;;;;;;;466825;28;1142;-68
2023/10/29 00:12:23;;;;;;;2.37;1.00;;;;;;;;;;467019;28;1127;-69
2023/10/29 00:12:38;;;;;;;2.25;0.82;;;;;;;;;;467283;28;1954;-69
2023/10/29 00:12:54;;;;;;;2.13;0.80;;;;;;;;;;468024;28;894;-68
2023/10/29 00:13:09;;;;;;;1.73;0.80;;;;;;;;;;468830;28;1132;-68
2023/10/29 00:13:25;;;;;;;1.50;0.80;;;;;;;;;;468601;28;1065;-68
2023/10/29 00:13:40;;;;;;;2.13;0.90;;;;;;;;;;471042;28;1036;-69
2023/10/29 00:13:56;;;;;;;3.38;0.90;;;;;;;;;;470492;28;910;-68
2023/10/29 00:14:11;;;;;;;3.30;0.93;;;;;;;;;;469684;28;1366;-68
2023/10/29 00:14:27;;;;;;;2.07;0.90;;;;;;;;;;468493;28;1034;-68
2023/10/29 00:14:42;;;;;;;1.97;0.90;;;;;;;;;;468857;28;913;-68
2023/10/29 00:14:57;;;;;;;1.95;0.90;;;;;;;;;;466759;28;1252;-68
2023/10/29 00:15:13;;;;;;;2.47;0.93;;;;;;;;;;466866;28;1141;-68
2023/10/29 00:15:28;;;;;;;2.40;1.00;;;;;;;;;;466515;28;1211;-69
2023/10/29 00:15:44;;;;;;;2.53;1.00;;;;;;;;;;468776;28;1056;-68
2023/10/29 00:15:59;;;;;;;2.53;1.00;;;;;;;;;;468279;28;1287;-68
2023/10/29 00:16:15;;;;;;;2.17;0.93;;;;;;;;;;469355;28;1430;-69
2023/10/29 00:16:30;;;;;;;2.53;0.93;;;;;;;;;;467368;28;1345;-69
2023/10/29 00:16:45;;;;;;;2.37;0.90;;;;;;;;;;468863;28;1085;-69
2023/10/29 00:17:01;;;;;;;2.35;0.80;;;;;;;;;;468673;28;1201;-68
2023/10/29 00:17:16;;;;;;;2.30;0.77;;;;;;;;;;468147;28;1275;-68
2023/10/29 00:17:31;;;;;;;3.17;0.80;;;;;;;;;;468129;28;1126;-69
2023/10/29 00:17:47;;;;;;;3.50;0.83;;;;;;;;;;468363;28;1055;-68
2023/10/29 00:18:05;;;;;;;2.30;0.90;;;;;;;;;;467524;28;1082;-69
2023/10/29 00:18:20;;;;;;;2.72;0.95;;;;;;;;;;467280;28;1009;-69
2023/10/29 00:18:36;;;;;;;2.73;0.90;;;;;;;;;;469254;28;1100;-69
2023/10/29 00:18:51;;;;;;;2.13;0.80;;;;;;;;;;468410;28;1683;-68
2023/10/29 00:19:06;;;;;;;2.03;0.80;;;;;;;;;;469057;28;878;-69
2023/10/29 00:19:21;;;;;;;3.42;0.90;;;;;;;;;;469110;28;1154;-68
2023/10/29 00:19:37;;;;;;;4.20;0.90;;;;;;;;;;469171;28;1094;-68
2023/10/29 00:19:53;;;;;;;3.00;0.80;;;;;;;;;;469394;28;875;-68
2023/10/29 00:20:09;;;;;;;2.35;0.80;;;;;;;;;;469457;28;1021;-69
2023/10/29 00:20:24;;;;;;;2.25;0.80;;;;;;;;;;469584;28;1056;-67
2023/10/29 00:20:39;;;;;;;2.03;0.73;;;;;;;;;;469333;28;1040;-68
2023/10/29 00:20:55;;;;;;;2.67;0.90;;;;;;;;;;469433;28;1285;-68
2023/10/29 00:21:10;;;;;;;3.23;1.00;;;;;;;;;;468813;28;1155;-69
2023/10/29 00:21:25;;;;;;;2.60;0.90;;;;;;;;;;467477;28;1167;-68
2023/10/29 00:21:40;;;;;;;2.25;0.80;;;;;;;;;;465317;28;1086;-68
2023/10/29 00:21:56;;;;;;;2.67;0.90;;;;;;;;;;464389;28;993;-68
2023/10/29 00:22:11;;;;;;;2.57;0.90;;;;;;;;;;466192;28;1076;-68
2023/10/29 00:22:27;;;;;;;2.40;0.93;;;;;;;;;;464981;28;914;-68
2023/10/29 00:22:42;;;;;;;2.05;0.82;;;;;;;;;;466236;28;870;-69
2023/10/29 00:22:58;;;;;;;2.50;0.80;;;;;;;;;;464661;28;1297;-68
2023/10/29 00:23:13;;;;;;;2.83;0.90;;;;;;;;;;466732;28;977;-69
2023/10/29 00:23:28;;;;;;;2.03;0.82;;;;;;;;;;468337;28;1124;-69
2023/10/29 00:23:44;;;;;;;2.03;0.73;;;;;;;;;;469708;28;1207;-69
2023/10/29 00:23:59;;;;;;;2.03;0.80;;;;;;;;;;468289;28;1207;-68
2023/10/29 00:24:14;;;;;;;1.60;0.70;;;;;;;;;;467064;28;1123;-69
2023/10/29 00:24:30;;;;;;;2.97;0.90;;;;;;;;;;470514;28;1443;-68
2023/10/29 00:24:45;;;;;;;2.90;0.90;;;;;;;;;;467775;28;1147;-68
2023/10/29 00:25:00;;;;;;;2.33;0.80;;;;;;;;;;469852;28;1263;-69
2023/10/29 00:25:16;;;;;;;2.73;0.80;;;;;;;;;;469483;28;927;-68
2023/10/29 00:25:31;;;;;;;2.17;0.90;;;;;;;;;;468349;28;1127;-68
2023/10/29 00:25:46;;;;;;;2.13;0.88;;;;;;;;;;468599;28;1289;-68
2023/10/29 00:26:02;;;;;;;2.00;0.80;;;;;;;;;;468968;28;1154;-68
2023/10/29 00:26:17;;;;;;;2.00;0.80;;;;;;;;;;468428;28;1326;-68
2023/10/29 00:26:32;;;;;;;2.47;0.80;;;;;;;;;;468583;28;1494;-68
2023/10/29 00:26:48;;;;;;;2.67;0.90;;;;;;;;;;469075;28;1282;-69
2023/10/29 00:27:03;;;;;;;2.00;0.90;;;;;;;;;;467567;28;960;-68
2023/10/29 00:27:19;;;;;;;2.15;0.90;;;;;;;;;;466635;28;1005;-68
2023/10/29 00:27:34;;;;;;;2.30;0.90;;;;;;;;;;468698;28;1205;-68
2023/10/29 00:27:51;;;;;;;2.53;0.80;;;;;;;;;;467406;28;1044;-68
2023/10/29 00:28:07;;;;;;;2.50;0.85;;;;;;;;;;468549;28;1073;-69
2023/10/29 00:28:23;;;;;;;2.45;0.80;;;;;;;;;;467391;28;1108;-68
2023/10/29 00:28:38;;;;;;;2.27;0.73;;;;;;;;;;468061;28;1164;-69
2023/10/29 00:28:53;;;;;;;1.77;0.77;;;;;;;;;;469449;28;905;-69
2023/10/29 00:29:08;;;;;;;2.10;0.90;;;;;;;;;;467192;28;1159;-69
2023/10/29 00:29:24;;;;;;;2.60;1.00;;;;;;;;;;467337;28;1217;-69
2023/10/29 00:29:41;;;;;;;2.60;1.00;;;;;;;;;;467841;28;992;-69
2023/10/29 00:29:56;;;;;;;3.10;0.90;;;;;;;;;;467390;28;1322;-69
2023/10/29 00:30:12;;;;;;;2.90;0.87;;;;;;;;;;467518;28;1580;-69
2023/10/29 00:30:28;;;;;;;2.13;0.90;;;;;;;;;;469456;28;1169;-68
2023/10/29 00:30:43;;;;;;;3.27;1.00;;;;;;;;;;469973;28;1096;-69
2023/10/29 00:30:58;;;;;;;3.63;0.97;;;;;;;;;;470814;28;1190;-69
2023/10/29 00:31:13;;;;;;;2.38;0.82;;;;;;;;;;471324;28;1005;-69
2023/10/29 00:31:29;;;;;;;1.87;0.80;;;;;;;;;;470858;28;948;-69
2023/10/29 00:31:44;;;;;;;1.70;0.73;;;;;;;;;;469407;28;1047;-69
2023/10/29 00:31:59;;;;;;;2.38;0.80;;;;;;;;;;469099;28;1310;-68
2023/10/29 00:32:18;;;;;;;2.07;0.80;;;;;;;;;;465426;28;1313;-69
2023/10/29 00:32:34;;;;;;;1.35;0.77;;;;;;;;;;465121;28;1122;-69
2023/10/29 00:32:49;;;;;;;1.45;0.75;;;;;;;;;;465960;28;1961;-69
2023/10/29 00:33:05;;;;;;;2.03;0.80;;;;;;;;;;467441;28;1250;-69
2023/10/29 00:33:20;;;;;;;2.50;0.90;;;;;;;;;;466885;28;1129;-69
2023/10/29 00:33:36;;;;;;;2.38;0.90;;;;;;;;;;468261;28;1331;-69
2023/10/29 00:33:51;;;;;;;3.33;0.80;;;;;;;;;;469495;28;1056;-69
2023/10/29 00:34:06;;;;;;;4.28;0.80;;;;;;;;;;471100;28;917;-69
2023/10/29 00:34:22;;;;;;;2.30;0.80;;;;;;;;;;470714;28;890;-68
2023/10/29 00:34:37;;;;;;;1.67;0.80;;;;;;;;;;469790;28;1216;-69
2023/10/29 00:34:52;;;;;;;2.45;0.82;;;;;;;;;;469523;28;1006;-69
2023/10/29 00:35:09;;;;;;;2.67;0.90;;;;;;;;;;469980;28;1256;-69
2023/10/29 00:35:24;;;;;;;2.42;0.95;;;;;;;;;;470561;28;1257;-69
2023/10/29 00:35:39;;;;;;;2.30;0.80;;;;;;;;;;470834;28;1222;-68
2023/10/29 00:35:54;;;;;;;1.90;0.82;;;;;;;;;;469213;28;1675;-69
2023/10/29 00:36:10;;;;;;;1.90;0.90;;;;;;;;;;468645;28;915;-69
2023/10/29 00:36:25;;;;;;;2.40;0.90;;;;;;;;;;468160;28;1190;-69
2023/10/29 00:36:40;;;;;;;3.28;0.98;;;;;;;;;;470082;28;1652;-69
2023/10/29 00:36:56;;;;;;;3.23;1.03;;;;;;;;;;471218;28;1261;-69
2023/10/29 00:37:11;;;;;;;2.10;0.90;;;;;;;;;;471052;28;1124;-69
2023/10/29 00:37:26;;;;;;;2.30;0.80;;;;;;;;;;470866;28;955;-68
2023/10/29 00:37:42;;;;;;;2.73;0.70;;;;;;;;;;471597;28;842;-68
2023/10/29 00:37:57;;;;;;;2.90;0.80;;;;;;;;;;471802;28;910;-68
2023/10/29 00:38:13;;;;;;;2.63;0.90;;;;;;;;;;471151;28;1029;-68
2023/10/29 00:38:28;;;;;;;2.00;0.90;;;;;;;;;;469410;28;1190;-68
2023/10/29 00:38:43;;;;;;;1.95;0.80;;;;;;;;;;469624;28;917;-69
2023/10/29 00:38:59;;;;;;;2.33;0.90;;;;;;;;;;468173;28;1025;-68
2023/10/29 00:39:15;;;;;;;2.42;0.90;;;;;;;;;;468494;28;1219;-69
2023/10/29 00:39:30;;;;;;;2.50;0.80;;;;;;;;;;468049;28;1008;-68
2023/10/29 00:39:45;;;;;;;2.95;0.90;;;;;;;;;;468091;28;1121;-69
2023/10/29 00:40:01;;;;;;;2.57;0.90;;;;;;;;;;468149;28;1211;-69
2023/10/29 00:40:17;;;;;;;2.10;0.80;;;;;;;;;;468456;28;929;-69
2023/10/29 00:40:37;;;;;;;2.17;0.80;;;;;;;;;;471785;28;1541;-68
2023/10/29 00:40:53;;;;;;;3.25;0.90;;;;;;;;;;468233;28;886;-68
2023/10/29 00:41:08;;;;;;;3.10;0.90;;;;;;;;;;469593;28;875;-68
2023/10/29 00:41:23;;;;;;;2.67;0.90;;;;;;;;;;468931;28;1065;-69
2023/10/29 00:41:41;;;;;;;2.97;1.00;;;;;;;;;;470121;28;1150;-69
2023/10/29 00:41:57;;;;;;;2.40;1.00;;;;;;;;;;469099;28;1384;-68
2023/10/29 00:42:12;;;;;;;2.78;0.95;;;;;;;;;;469350;28;1297;-68
2023/10/29 00:42:28;;;;;;;2.60;0.90;;;;;;;;;;468592;28;871;-69
2023/10/29 00:42:43;;;;;;;1.70;0.70;;;;;;;;;;469137;28;867;-68
2023/10/29 00:42:58;;;;;;;2.53;0.90;;;;;;;;;;469259;28;1637;-69
2023/10/29 00:43:15;;;;;;;3.15;1.08;;;;;;;;;;467418;28;1167;-68
2023/10/29 00:43:43;;;;;;;2.92;0.98;;;;;;;;;;467141;28;953;-69
2023/10/29 00:43:58;;;;;;;2.72;0.90;;;;;;;;;;467434;28;1170;-68
2023/10/29 00:44:13;;;;;;;3.13;0.97;;;;;;;;;;468979;28;1093;-69
2023/10/29 00:44:29;;;;;;;2.95;1.00;;;;;;;;;;469508;28;947;-69
2023/10/29 00:44:44;;;;;;;3.10;0.90;;;;;;;;;;468010;28;1093;-68
2023/10/29 00:44:59;;;;;;;2.77;0.90;;;;;;;;;;471734;28;1186;-69
2023/10/29 00:45:15;;;;;;;1.85;0.90;;;;;;;;;;468946;28;1018;-69
2023/10/29 00:45:30;;;;;;;2.40;1.00;;;;;;;;;;469285;28;1089;-69
2023/10/29 00:45:52;;;;;;;2.70;0.90;;;;;;;;;;469199;28;890;-69
2023/10/29 00:46:08;;;;;;;1.27;0.63;;;;;;;;;;467372;28;1314;-68
2023/10/29 00:46:24;;;;;;;1.63;0.80;;;;;;;;;;468843;28;1147;-69
2023/10/29 00:46:41;;;;;;;2.15;0.90;;;;;;;;;;470419;28;937;-68
2023/10/29 00:46:57;;;;;;;2.30;0.90;;;;;;;;;;470055;28;1283;-69
2023/10/29 00:47:13;;;;;;;2.55;0.90;;;;;;;;;;468863;28;1021;-68
2023/10/29 00:47:28;;;;;;;2.40;0.90;;;;;;;;;;471190;28;1397;-69
2023/10/29 00:47:43;;;;;;;1.87;0.87;;;;;;;;;;468736;28;1227;-68
2023/10/29 00:48:00;;;;;;;1.67;0.77;;;;;;;;;;468199;28;914;-68
2023/10/29 00:48:15;;;;;;;1.88;0.70;;;;;;;;;;468501;28;1305;-68
2023/10/29 00:48:31;;;;;;;2.47;0.80;;;;;;;;;;464725;28;1114;-69
2023/10/29 00:48:48;;;;;;;2.42;0.90;;;;;;;;;;465435;28;1094;-69
2023/10/29 00:49:03;;;;;;;2.53;0.90;;;;;;;;;;466207;28;1310;-69
2023/10/29 00:49:19;;;;;;;2.55;1.00;;;;;;;;;;465315;28;1210;-69
2023/10/29 00:49:35;;;;;;;2.03;0.90;;;;;;;;;;466793;28;914;-69
2023/10/29 00:49:52;;;;;;;1.75;0.80;;;;;;;;;;465943;28;1388;-68
2023/10/29 00:50:08;;;;;;;2.50;0.80;;;;;;;;;;467670;28;1072;-69
2023/10/29 00:50:23;;;;;;;3.03;0.80;;;;;;;;;;466676;28;1113;-69
2023/10/29 00:50:39;;;;;;;2.65;0.90;;;;;;;;;;467233;28;903;-68
2023/10/29 00:50:56;;;;;;;2.60;0.80;;;;;;;;;;466122;28;1029;-68
2023/10/29 00:51:11;;;;;;;1.98;0.80;;;;;;;;;;464719;28;1274;-68
2023/10/29 00:51:27;;;;;;;1.77;0.88;;;;;;;;;;463592;28;1434;-69
2023/10/29 00:51:44;;;;;;;1.97;0.90;;;;;;;;;;465761;28;1198;-69
2023/10/29 00:51:59;;;;;;;1.85;0.82;;;;;;;;;;466815;28;981;-68
2023/10/29 00:52:15;;;;;;;1.52;0.90;;;;;;;;;;468412;28;918;-69
2023/10/29 00:52:31;;;;;;;1.85;0.90;;;;;;;;;;469059;28;1240;-68
2023/10/29 00:52:47;;;;;;;1.93;0.90;;;;;;;;;;470432;28;1961;-69
2023/10/29 00:53:02;;;;;;;1.98;0.80;;;;;;;;;;471052;28;1031;-68
2023/10/29 00:53:18;;;;;;;2.17;0.98;;;;;;;;;;471737;28;1930;-68
2023/10/29 00:53:33;;;;;;;1.80;0.90;;;;;;;;;;471613;28;1251;-68
2023/10/29 00:53:49;;;;;;;2.42;0.80;;;;;;;;;;470806;28;1009;-69
2023/10/29 00:54:06;;;;;;;2.65;0.80;;;;;;;;;;470344;28;1084;-68
2023/10/29 00:54:21;;;;;;;2.17;0.80;;;;;;;;;;471516;28;1188;-68
2023/10/29 00:54:37;;;;;;;2.58;0.85;;;;;;;;;;470777;28;1012;-68
2023/10/29 00:54:52;;;;;;;2.40;0.83;;;;;;;;;;470674;28;1320;-69
2023/10/29 00:55:08;;;;;;;2.40;0.90;;;;;;;;;;470624;28;1214;-68
2023/10/29 00:55:24;;;;;;;3.25;1.00;;;;;;;;;;470853;28;964;-68
2023/10/29 00:55:40;;;;;;;3.08;0.98;;;;;;;;;;470924;28;2387;-68
2023/10/29 00:55:57;;;;;;;2.50;0.90;;;;;;;;;;471590;28;903;-68
2023/10/29 00:56:14;;;;;;;3.15;1.00;;;;;;;;;;471285;28;1094;-69
2023/10/29 00:56:30;;;;;;;3.03;1.00;;;;;;;;;;471062;28;960;-69
2023/10/29 00:56:46;;;;;;;1.83;0.80;;;;;;;;;;469317;28;1199;-68
2023/10/29 00:57:02;;;;;;;1.83;0.80;;;;;;;;;;469940;28;1361;-69
2023/10/29 00:57:17;;;;;;;2.42;0.80;;;;;;;;;;468563;28;966;-68
2023/10/29 00:57:32;;;;;;;4.27;0.90;;;;;;;;;;469684;28;1075;-69
2023/10/29 00:57:48;;;;;;;4.68;0.90;;;;;;;;;;470424;28;1332;-68
2023/10/29 00:58:04;;;;;;;2.83;0.90;;;;;;;;;;469978;28;1311;-68
2023/10/29 00:58:19;;;;;;;2.35;0.90;;;;;;;;;;471005;28;1349;-68
2023/10/29 00:58:36;;;;;;;2.58;0.90;;;;;;;;;;471169;28;894;-69
2023/10/29 00:58:51;;;;;;;2.33;0.77;;;;;;;;;;470534;28;1280;-68
2023/10/29 00:59:07;;;;;;;2.15;0.80;;;;;;;;;;471110;28;1061;-69
2023/10/29 00:59:24;;;;;;;2.10;0.87;;;;;;;;;;470498;28;998;-68
2023/10/29 00:59:40;;;;;;;2.45;0.82;;;;;;;;;;473050;28;981;-69
2023/10/29 00:59:56;;;;;;;2.67;0.88;;;;;;;;;;469295;28;1489;-68
2023/10/29 01:00:12;;;;;;;2.47;0.80;;;;;;;;;;468841;28;1082;-68
2023/10/29 01:00:27;;;;;;;2.17;0.80;;;;;;;;;;468980;28;1115;-68
2023/10/29 01:00:44;;;;;;;2.00;0.90;;;;;;;;;;469471;28;1141;-69
2023/10/29 01:01:00;;;;;;;1.60;0.80;;;;;;;;;;471470;28;1165;-68
2023/10/29 01:01:15;;;;;;;1.63;0.70;;;;;;;;;;470182;28;1020;-69
2023/10/29 01:01:31;;;;;;;1.73;0.70;;;;;;;;;;469994;28;1412;-69
2023/10/29 01:01:47;;;;;;;1.95;0.88;;;;;;;;;;469754;28;1142;-68
2023/10/29 01:02:03;;;;;;;2.22;0.82;;;;;;;;;;469342;28;1031;-68
2023/10/29 01:02:19;;;;;;;2.58;0.90;;;;;;;;;;468470;28;1056;-68
2023/10/29 01:02:35;;;;;;;2.70;1.00;;;;;;;;;;468555;28;1147;-68
2023/10/29 01:02:50;;;;;;;2.73;1.00;;;;;;;;;;469907;28;1793;-69
2023/10/29 01:03:05;;;;;;;2.50;0.90;;;;;;;;;;469427;28;878;-69
2023/10/29 01:03:22;;;;;;;2.25;0.80;;;;;;;;;;469807;28;972;-68
2023/10/29 01:03:37;;;;;;;1.95;0.93;;;;;;;;;;469127;28;1337;-69
2023/10/29 01:03:52;;;;;;;1.67;0.80;;;;;;;;;;469630;28;1048;-69
2023/10/29 01:04:08;;;;;;;1.88;0.73;;;;;;;;;;469742;28;1006;-69
2023/10/29 01:04:23;;;;;;;2.17;0.87;;;;;;;;;;469406;28;1448;-68
2023/10/29 01:04:39;;;;;;;1.85;0.88;;;;;;;;;;469094;28;1046;-68
2023/10/29 01:04:54;;;;;;;1.57;0.80;;;;;;;;;;470743;28;965;-68
2023/10/29 01:05:10;;;;;;;1.83;0.90;;;;;;;;;;470290;28;1167;-68
2023/10/29 01:05:25;;;;;;;2.43;1.00;;;;;;;;;;472753;28;1364;-69
2023/10/29 01:05:41;;;;;;;2.63;0.90;;;;;;;;;;470716;28;1093;-69
2023/10/29 01:05:57;;;;;;;2.13;0.80;;;;;;;;;;470583;28;1057;-68
2023/10/29 01:06:12;;;;;;;1.58;0.70;;;;;;;;;;469657;28;1156;-68
2023/10/29 01:06:28;;;;;;;1.43;0.80;;;;;;;;;;468571;28;1240;-68
2023/10/29 01:06:44;;;;;;;2.00;0.98;;;;;;;;;;469128;28;1201;-69
2023/10/29 01:06:59;;;;;;;2.15;0.90;;;;;;;;;;468267;28;1105;-69
2023/10/29 01:07:16;;;;;;;2.00;0.80;;;;;;;;;;469297;28;1044;-68
2023/10/29 01:07:32;;;;;;;2.47;0.90;;;;;;;;;;468815;28;1420;-69
2023/10/29 01:07:48;;;;;;;3.42;1.00;;;;;;;;;;470363;28;915;-68
2023/10/29 01:08:11;;;;;;;4.53;1.00;;;;;;;;;;469974;28;1494;-68
2023/10/29 01:08:26;;;;;;;3.17;0.90;;;;;;;;;;470932;28;1080;-69
2023/10/29 01:08:41;;;;;;;2.47;0.90;;;;;;;;;;469393;28;1310;-68
2023/10/29 01:08:58;;;;;;;2.25;0.90;;;;;;;;;;469854;28;1149;-68
2023/10/29 01:09:13;;;;;;;2.08;0.80;;;;;;;;;;469038;28;933;-68
2023/10/29 01:09:29;;;;;;;2.57;0.80;;;;;;;;;;470652;28;1105;-68
2023/10/29 01:09:46;;;;;;;2.42;0.85;;;;;;;;;;468717;28;1601;-69
2023/10/29 01:10:01;;;;;;;2.10;0.80;;;;;;;;;;468783;28;1325;-68
2023/10/29 01:10:17;;;;;;;1.90;0.90;;;;;;;;;;466994;28;1223;-68
2023/10/29 01:10:32;;;;;;;2.37;1.00;;;;;;;;;;465349;28;1067;-68
2023/10/29 01:10:47;;;;;;;2.27;0.90;;;;;;;;;;465783;28;1090;-68
2023/10/29 01:11:05;;;;;;;2.13;0.90;;;;;;;;;;464884;28;1237;-68
2023/10/29 01:11:21;;;;;;;2.25;0.93;;;;;;;;;;467735;28;1274;-68
2023/10/29 01:11:36;;;;;;;2.53;0.90;;;;;;;;;;463440;28;1105;-68
2023/10/29 01:11:51;;;;;;;2.77;0.87;;;;;;;;;;464020;28;1014;-69
2023/10/29 01:12:14;;;;;;;3.13;1.00;;;;;;;;;;465428;28;1312;-69
2023/10/29 01:12:30;;;;;;;2.55;0.90;;;;;;;;;;467032;28;1010;-68
2023/10/29 01:12:45;;;;;;;2.00;0.80;;;;;;;;;;466563;28;1960;-68
2023/10/29 01:13:00;;;;;;;1.87;0.70;;;;;;;;;;466118;28;1045;-68
2023/10/29 01:13:16;;;;;;;2.65;0.80;;;;;;;;;;468686;28;1031;-68
2023/10/29 01:13:32;;;;;;;2.83;0.90;;;;;;;;;;469175;28;1112;-68
2023/10/29 01:13:47;;;;;;;3.05;0.90;;;;;;;;;;469004;28;937;-68
2023/10/29 01:14:03;;;;;;;3.08;0.93;;;;;;;;;;468371;28;1296;-69
2023/10/29 01:14:19;;;;;;;2.58;1.00;;;;;;;;;;469305;28;1382;-68
2023/10/29 01:14:34;;;;;;;3.10;1.00;;;;;;;;;;468687;28;1047;-68
2023/10/29 01:14:49;;;;;;;2.70;0.90;;;;;;;;;;468991;28;1015;-68
2023/10/29 01:15:05;;;;;;;2.23;0.80;;;;;;;;;;469057;28;1083;-68
2023/10/29 01:15:20;;;;;;;2.83;0.90;;;;;;;;;;468586;28;1007;-69
2023/10/29 01:15:36;;;;;;;2.87;0.90;;;;;;;;;;469234;28;1122;-68
2023/10/29 01:15:51;;;;;;;2.72;0.85;;;;;;;;;;468758;28;2067;-68
2023/10/29 01:16:06;;;;;;;2.43;0.80;;;;;;;;;;469041;28;2109;-68
2023/10/29 01:16:22;;;;;;;1.83;0.77;;;;;;;;;;466429;28;976;-68
2023/10/29 01:16:38;;;;;;;2.70;0.90;;;;;;;;;;468748;28;1073;-69
2023/10/29 01:16:53;;;;;;;3.63;0.90;;;;;;;;;;470654;28;1418;-69
2023/10/29 01:17:09;;;;;;;3.00;0.90;;;;;;;;;;471033;28;937;-69
2023/10/29 01:17:24;;;;;;;1.80;0.80;;;;;;;;;;470185;28;1062;-69
2023/10/29 01:17:41;;;;;;;1.83;0.70;;;;;;;;;;468002;28;878;-68
2023/10/29 01:17:56;;;;;;;2.85;0.90;;;;;;;;;;470402;28;1318;-68
2023/10/29 01:18:11;;;;;;;3.13;1.00;;;;;;;;;;470817;28;972;-69
2023/10/29 01:18:27;;;;;;;2.72;0.80;;;;;;;;;;469199;28;1207;-68
2023/10/29 01:18:42;;;;;;;2.43;0.80;;;;;;;;;;466786;28;1293;-68
2023/10/29 01:19:01;;;;;;;3.53;0.90;;;;;;;;;;464273;28;863;-68
2023/10/29 01:19:16;;;;;;;3.35;0.90;;;;;;;;;;464334;28;921;-68
2023/10/29 01:19:31;;;;;;;2.80;0.80;;;;;;;;;;466584;28;1162;-68
2023/10/29 01:19:47;;;;;;;2.90;0.87;;;;;;;;;;468033;28;1268;-69
2023/10/29 01:20:04;;;;;;;2.35;0.90;;;;;;;;;;467150;28;1141;-68
2023/10/29 01:20:19;;;;;;;2.42;0.90;;;;;;;;;;469973;28;903;-68
2023/10/29 01:20:35;;;;;;;2.20;0.90;;;;;;;;;;467427;28;1211;-68
2023/10/29 01:20:50;;;;;;;2.25;0.82;;;;;;;;;;468544;28;961;-69
2023/10/29 01:21:08;;;;;;;3.00;0.83;;;;;;;;;;468675;28;1042;-68
2023/10/29 01:21:26;;;;;;;2.25;0.90;;;;;;;;;;468329;28;981;-68
2023/10/29 01:21:43;;;;;;;2.20;0.90;;;;;;;;;;465945;28;1188;-68
2023/10/29 01:21:58;;;;;;;2.05;0.82;;;;;;;;;;469340;28;1237;-68
2023/10/29 01:22:14;;;;;;;2.37;0.80;;;;;;;;;;470291;28;1190;-68
2023/10/29 01:22:29;;;;;;;3.25;0.90;;;;;;;;;;470810;28;873;-68
2023/10/29 01:22:44;;;;;;;3.23;0.90;;;;;;;;;;470794;28;922;-68
2023/10/29 01:23:01;;;;;;;2.50;0.73;;;;;;;;;;470995;28;881;-68
2023/10/29 01:23:17;;;;;;;2.25;0.88;;;;;;;;;;470415;28;1279;-69
2023/10/29 01:23:33;;;;;;;1.70;0.80;;;;;;;;;;471155;28;948;-69
2023/10/29 01:23:48;;;;;;;2.13;0.80;;;;;;;;;;473078;28;957;-68
2023/10/29 01:24:04;;;;;;;2.80;0.90;;;;;;;;;;471025;28;1180;-68
2023/10/29 01:24:19;;;;;;;2.63;0.85;;;;;;;;;;468854;28;1022;-68
2023/10/29 01:24:34;;;;;;;2.13;0.80;;;;;;;;;;468588;28;1974;-68
2023/10/29 01:24:49;;;;;;;2.17;0.80;;;;;;;;;;471661;28;1193;-68
2023/10/29 01:25:09;;;;;;;2.15;0.77;;;;;;;;;;468286;28;1084;-69
2023/10/29 01:25:24;;;;;;;2.08;0.77;;;;;;;;;;468462;28;941;-68
2023/10/29 01:25:41;;;;;;;2.65;0.80;;;;;;;;;;470011;28;1037;-69
2023/10/29 01:25:59;;;;;;;2.70;0.80;;;;;;;;;;470497;28;1120;-68
2023/10/29 01:26:15;;;;;;;4.25;0.80;;;;;;;;;;469584;28;981;-68
2023/10/29 01:26:31;;;;;;;4.63;0.90;;;;;;;;;;469245;28;929;-68
2023/10/29 01:26:46;;;;;;;2.92;0.90;;;;;;;;;;467130;28;1084;-69
2023/10/29 01:27:03;;;;;;;2.93;0.90;;;;;;;;;;467225;28;1184;-68
2023/10/29 01:27:18;;;;;;;2.53;0.85;;;;;;;;;;467699;28;1630;-68
2023/10/29 01:27:33;;;;;;;1.70;0.80;;;;;;;;;;468560;28;1121;-68
2023/10/29 01:27:49;;;;;;;2.05;0.80;;;;;;;;;;467845;28;1445;-68
2023/10/29 01:28:05;;;;;;;2.40;0.90;;;;;;;;;;465831;28;1302;-68
2023/10/29 01:28:20;;;;;;;2.28;0.88;;;;;;;;;;468215;28;859;-68
2023/10/29 01:28:35;;;;;;;2.27;0.80;;;;;;;;;;469281;28;1041;-68
2023/10/29 01:28:51;;;;;;;2.43;0.73;;;;;;;;;;465295;28;1174;-68
2023/10/29 01:29:06;;;;;;;2.72;0.73;;;;;;;;;;467120;28;1001;-68
2023/10/29 01:29:21;;;;;;;2.60;0.73;;;;;;;;;;467193;28;1098;-68
2023/10/29 01:29:37;;;;;;;2.60;0.83;;;;;;;;;;467407;28;1158;-68
2023/10/29 01:29:52;;;;;;;3.30;0.93;;;;;;;;;;469110;28;1207;-69
2023/10/29 01:30:08;;;;;;;3.53;1.00;;;;;;;;;;468101;28;1245;-69
2023/10/29 01:30:23;;;;;;;2.85;0.90;;;;;;;;;;467861;28;1075;-68
2023/10/29 01:30:38;;;;;;;2.43;0.90;;;;;;;;;;468084;28;1056;-68
2023/10/29 01:30:54;;;;;;;2.47;0.90;;;;;;;;;;467076;28;991;-68
2023/10/29 01:31:10;;;;;;;3.07;0.93;;;;;;;;;;467872;28;1274;-68
2023/10/29 01:31:25;;;;;;;3.35;0.93;;;;;;;;;;467246;28;1311;-68
2023/10/29 01:31:41;;;;;;;2.70;0.90;;;;;;;;;;467231;28;1022;-68
2023/10/29 01:31:56;;;;;;;2.80;0.80;;;;;;;;;;467847;28;919;-69
2023/10/29 01:32:11;;;;;;;2.97;0.80;;;;;;;;;;469728;28;938;-69
2023/10/29 01:32:27;;;;;;;2.53;0.80;;;;;;;;;;468853;28;906;-69
2023/10/29 01:32:42;;;;;;;2.25;0.88;;;;;;;;;;468562;28;2022;-68
2023/10/29 01:32:59;;;;;;;2.47;0.90;;;;;;;;;;469766;28;1155;-68
2023/10/29 01:33:14;;;;;;;2.00;0.80;;;;;;;;;;469543;28;1446;-68
2023/10/29 01:33:30;;;;;;;1.47;0.80;;;;;;;;;;468987;28;1027;-68
2023/10/29 01:33:45;;;;;;;2.10;0.90;;;;;;;;;;466981;28;1135;-69
2023/10/29 01:34:00;;;;;;;2.17;0.90;;;;;;;;;;466638;28;1203;-68
2023/10/29 01:34:17;;;;;;;2.37;0.80;;;;;;;;;;468593;28;1434;-68
2023/10/29 01:34:32;;;;;;;2.15;0.77;;;;;;;;;;467184;28;1239;-68
2023/10/29 01:34:49;;;;;;;3.23;0.80;;;;;;;;;;467671;28;1125;-68
2023/10/29 01:35:05;;;;;;;3.67;0.90;;;;;;;;;;467611;28;988;-68
2023/10/29 01:35:20;;;;;;;2.63;0.90;;;;;;;;;;468793;28;1376;-68
2023/10/29 01:35:35;;;;;;;2.03;0.80;;;;;;;;;;468267;28;1162;-68
2023/10/29 01:35:51;;;;;;;1.57;0.80;;;;;;;;;;469106;28;1239;-68
2023/10/29 01:36:06;;;;;;;1.85;0.80;;;;;;;;;;469922;28;940;-69
2023/10/29 01:36:22;;;;;;;2.00;0.70;;;;;;;;;;470756;28;968;-68
2023/10/29 01:36:37;;;;;;;1.58;0.70;;;;;;;;;;469851;28;1154;-68
2023/10/29 01:36:52;;;;;;;1.80;0.70;;;;;;;;;;468146;28;1389;-69
2023/10/29 01:37:08;;;;;;;2.60;0.90;;;;;;;;;;468006;28;1063;-68
2023/10/29 01:37:23;;;;;;;2.55;0.90;;;;;;;;;;466543;28;1555;-69